createdAt,value
2023-02-02T00:01:25.787Z,1.47
2023-02-02T00:03:53.154Z,1.38
2023-02-02T00:06:21.309Z,1.38
2023-02-02T00:08:48.925Z,1.00
2023-02-02T00:11:17.322Z,1.50
2023-02-02T00:13:44.365Z,1.90
2023-02-02T00:16:26.525Z,2.08
2023-02-02T00:18:54.370Z,2.70
2023-02-02T00:21:21.197Z,2.33
2023-02-02T00:23:48.465Z,2.30
2023-02-02T00:26:15.446Z,2.17
2023-02-02T00:28:42.719Z,2.60
2023-02-02T00:31:09.725Z,2.90
2023-02-02T00:33:36.706Z,3.00
2023-02-02T00:36:04.423Z,2.90
2023-02-02T00:38:32.272Z,2.65
2023-02-02T00:40:59.335Z,2.72
2023-02-02T00:43:26.162Z,2.97
2023-02-02T00:45:53.258Z,2.90
2023-02-02T00:48:20.272Z,3.20
2023-02-02T00:50:48.606Z,2.92
2023-02-02T00:53:15.553Z,2.90
2023-02-02T00:55:42.475Z,3.13
2023-02-02T00:58:09.535Z,3.05
2023-02-02T01:00:37.703Z,2.10
2023-02-02T01:03:06.146Z,1.90
2023-02-02T01:05:34.220Z,2.10
2023-02-02T01:08:01.948Z,2.20
2023-02-02T01:10:28.957Z,2.40
2023-02-02T01:12:55.897Z,2.25
2023-02-02T01:15:23.349Z,2.20
2023-02-02T01:17:50.679Z,2.50
2023-02-02T01:20:20.508Z,2.80
2023-02-02T01:22:48.026Z,2.88
2023-02-02T01:25:14.877Z,3.00
2023-02-02T01:27:43.177Z,2.90
2023-02-02T01:30:10.851Z,2.90
2023-02-02T01:32:37.734Z,3.00
2023-02-02T01:35:04.893Z,2.90
2023-02-02T01:37:31.813Z,3.22
2023-02-02T01:39:58.666Z,3.75
2023-02-02T01:42:25.919Z,3.30
2023-02-02T01:44:52.838Z,3.35
2023-02-02T01:47:27.078Z,3.20
2023-02-02T01:49:55.394Z,3.00
2023-02-02T01:52:25.982Z,2.80
2023-02-02T01:55:00.190Z,3.00
2023-02-02T01:57:34.596Z,3.15
2023-02-02T02:00:07.913Z,2.90
2023-02-02T02:02:43.291Z,3.00
2023-02-02T02:05:11.843Z,3.38
2023-02-02T02:07:42.785Z,3.35
2023-02-02T02:10:10.176Z,3.15
2023-02-02T02:12:37.080Z,3.30
2023-02-02T02:15:23.744Z,2.88
2023-02-02T02:17:53.857Z,3.37
2023-02-02T02:20:50.046Z,3.28
2023-02-02T02:24:00.647Z,2.90
2023-02-02T02:26:58.752Z,3.05
2023-02-02T02:29:56.175Z,3.13
2023-02-02T02:32:52.781Z,3.50
2023-02-02T02:35:42.740Z,3.13
2023-02-02T02:38:18.109Z,3.22
2023-02-02T02:40:51.604Z,3.38
2023-02-02T02:43:36.225Z,3.33
2023-02-02T02:46:03.833Z,3.13
2023-02-02T02:48:31.174Z,3.08
2023-02-02T02:51:47.536Z,3.15
2023-02-02T02:54:32.633Z,3.17
2023-02-02T02:57:14.651Z,3.05
2023-02-02T02:59:47.464Z,3.15
2023-02-02T03:02:42.869Z,3.30
2023-02-02T03:05:49.618Z,3.42
2023-02-02T03:08:32.849Z,3.40
2023-02-02T03:11:02.298Z,3.30
2023-02-02T03:13:31.360Z,3.33
2023-02-02T03:15:58.593Z,3.00
2023-02-02T03:18:28.802Z,3.40
2023-02-02T03:20:55.956Z,3.10
2023-02-02T03:23:23.439Z,3.53
2023-02-02T03:25:50.534Z,3.10
2023-02-02T03:28:18.770Z,3.28
2023-02-02T03:30:48.537Z,2.75
2023-02-02T03:33:16.332Z,3.13
2023-02-02T03:35:43.177Z,3.30
2023-02-02T03:38:10.008Z,3.33
2023-02-02T03:40:36.823Z,3.22
2023-02-02T03:43:03.592Z,3.10
2023-02-02T03:45:32.169Z,3.45
2023-02-02T03:47:59.187Z,3.78
2023-02-02T03:50:26.142Z,2.83
2023-02-02T03:52:55.133Z,3.22
2023-02-02T03:55:22.474Z,2.80
2023-02-02T03:57:49.842Z,3.30
2023-02-02T04:00:16.985Z,2.95
2023-02-02T04:02:43.778Z,2.85
2023-02-02T04:05:10.611Z,3.35
2023-02-02T04:07:37.529Z,2.83
2023-02-02T04:10:05.236Z,2.90
2023-02-02T04:12:32.061Z,2.72
2023-02-02T04:14:58.921Z,2.90
2023-02-02T04:17:25.868Z,3.10
2023-02-02T04:19:58.240Z,3.15
2023-02-02T04:22:26.259Z,2.75
2023-02-02T04:24:53.399Z,3.15
2023-02-02T04:27:20.533Z,2.50
2023-02-02T04:29:47.551Z,2.33
2023-02-02T04:32:18.602Z,2.70
2023-02-02T04:34:45.637Z,2.92
2023-02-02T04:37:12.746Z,2.70
2023-02-02T04:39:39.463Z,2.88
2023-02-02T04:42:06.489Z,2.78
2023-02-02T04:44:33.390Z,2.58
2023-02-02T04:47:00.322Z,2.58
2023-02-02T04:49:27.403Z,2.80
2023-02-02T04:51:54.352Z,2.85
2023-02-02T04:54:21.375Z,3.10
2023-02-02T04:56:48.249Z,2.60
2023-02-02T04:59:15.148Z,3.03
2023-02-02T05:01:41.987Z,2.67
2023-02-02T05:04:08.925Z,2.75
2023-02-02T05:06:35.980Z,2.92
2023-02-02T05:09:03.142Z,2.80
2023-02-02T05:11:31.029Z,2.70
2023-02-02T05:13:58.028Z,2.53
2023-02-02T05:16:28.464Z,2.50
2023-02-02T05:18:57.845Z,2.85
2023-02-02T05:21:25.167Z,2.38
2023-02-02T05:23:53.889Z,3.33
2023-02-02T05:26:24.790Z,2.60
2023-02-02T05:28:52.238Z,2.60
2023-02-02T05:31:19.919Z,3.00
2023-02-02T05:33:47.082Z,2.45
2023-02-02T05:36:14.134Z,2.72
2023-02-02T05:38:41.068Z,2.28
2023-02-02T05:41:10.425Z,2.30
2023-02-02T05:43:37.412Z,2.33
2023-02-02T05:46:04.510Z,2.60
2023-02-02T05:48:31.473Z,2.30
2023-02-02T05:51:16.319Z,2.60
2023-02-02T05:53:45.072Z,2.22
2023-02-02T05:56:13.435Z,2.35
2023-02-02T05:58:40.494Z,2.50
2023-02-02T06:01:07.543Z,2.60
2023-02-02T06:03:34.691Z,2.53
2023-02-02T06:06:01.744Z,2.20
2023-02-02T06:08:28.730Z,2.50
2023-02-02T06:10:55.691Z,2.45
2023-02-02T06:13:23.119Z,2.40
2023-02-02T06:15:50.067Z,2.08
2023-02-02T06:18:17.193Z,2.10
2023-02-02T06:20:47.147Z,2.70
2023-02-02T06:23:15.567Z,2.70
2023-02-02T06:25:43.405Z,2.60
2023-02-02T06:28:10.482Z,2.85
2023-02-02T06:30:37.420Z,2.83
2023-02-02T06:33:05.467Z,2.40
2023-02-02T06:35:35.921Z,2.85
2023-02-02T06:38:03.235Z,2.40
2023-02-02T06:40:30.605Z,2.70
2023-02-02T06:43:02.702Z,3.10
2023-02-02T06:45:30.827Z,3.08
2023-02-02T06:48:03.669Z,2.90
2023-02-02T06:50:30.875Z,2.60
2023-02-02T06:52:57.864Z,2.95
2023-02-02T06:55:25.136Z,2.80
2023-02-02T06:57:57.639Z,3.22
2023-02-02T07:00:25.369Z,3.22
2023-02-02T07:02:52.390Z,3.22
2023-02-02T07:05:20.421Z,3.05
2023-02-02T07:07:47.357Z,3.30
2023-02-02T07:11:11.794Z,2.77
2023-02-02T07:13:01.412Z,3.05
2023-02-02T07:15:28.249Z,3.35
2023-02-02T07:17:55.194Z,3.00
2023-02-02T07:20:22.166Z,2.80
2023-02-02T07:22:49.438Z,3.25
2023-02-02T07:25:16.564Z,3.30
2023-02-02T07:27:43.719Z,3.30
2023-02-02T07:30:11.284Z,3.00
2023-02-02T07:32:38.308Z,3.72
2023-02-02T07:35:05.985Z,3.05
2023-02-02T07:37:32.866Z,3.33
2023-02-02T07:39:59.765Z,3.70
2023-02-02T07:42:26.569Z,2.58
2023-02-02T07:44:53.430Z,2.78
2023-02-02T07:47:20.407Z,3.38
2023-02-02T07:49:47.336Z,3.00
2023-02-02T07:52:14.195Z,3.30
2023-02-02T07:54:41.067Z,3.00
2023-02-02T07:57:08.131Z,3.30
2023-02-02T07:59:35.040Z,2.80
2023-02-02T08:02:01.911Z,2.90
2023-02-02T08:04:28.820Z,3.00
2023-02-02T08:06:55.757Z,3.00
2023-02-02T08:09:22.751Z,2.85
2023-02-02T08:11:49.664Z,2.88
2023-02-02T08:14:16.750Z,2.80
2023-02-02T08:16:43.754Z,2.90
2023-02-02T08:19:11.334Z,2.88
2023-02-02T08:21:38.503Z,3.10
2023-02-02T08:24:05.661Z,2.88
2023-02-02T08:26:32.756Z,2.97
2023-02-02T08:29:05.781Z,2.67
2023-02-02T08:31:38.742Z,3.00
2023-02-02T08:34:05.723Z,3.00
2023-02-02T08:36:35.416Z,2.90
2023-02-02T08:39:08.814Z,2.80
2023-02-02T08:41:36.931Z,2.38
2023-02-02T08:44:13.111Z,3.10
2023-02-02T08:46:40.229Z,2.60
2023-02-02T08:49:07.582Z,2.88
2023-02-02T08:51:34.346Z,2.40
2023-02-02T08:54:01.225Z,2.63
2023-02-02T08:56:28.159Z,2.80
2023-02-02T08:59:00.295Z,2.75
2023-02-02T09:01:32.230Z,2.72
2023-02-02T09:04:02.478Z,2.57
2023-02-02T09:06:35.744Z,2.83
2023-02-02T09:09:04.626Z,2.63
2023-02-02T09:11:31.675Z,2.38
2023-02-02T09:14:01.099Z,3.22
2023-02-02T09:16:28.080Z,2.45
2023-02-02T09:18:56.298Z,2.58
2023-02-02T09:21:23.247Z,2.78
2023-02-02T09:23:51.580Z,2.65
2023-02-02T09:26:21.553Z,2.83
2023-02-02T09:28:54.021Z,2.20
2023-02-02T09:31:21.707Z,2.58
2023-02-02T09:33:49.079Z,2.65
2023-02-02T09:36:21.725Z,2.70
2023-02-02T09:38:50.272Z,2.47
2023-02-02T09:41:35.509Z,3.25
2023-02-02T09:44:35.954Z,2.67
2023-02-02T09:47:22.857Z,2.50
2023-02-02T09:49:55.712Z,2.50
2023-02-02T09:52:30.192Z,2.47
2023-02-02T09:55:07.022Z,2.25
2023-02-02T09:57:41.317Z,2.60
2023-02-02T10:00:40.313Z,2.70
2023-02-02T10:03:24.637Z,2.65
2023-02-02T10:06:22.991Z,2.90
2023-02-02T10:08:54.151Z,2.85
2023-02-02T10:11:39.294Z,2.58
2023-02-02T10:14:18.262Z,2.88
2023-02-02T10:16:47.721Z,3.10
2023-02-02T10:19:15.623Z,3.07
2023-02-02T10:21:49.108Z,2.30
2023-02-02T10:24:24.749Z,2.43
2023-02-02T10:26:57.607Z,2.65
2023-02-02T10:29:48.427Z,2.60
2023-02-02T10:32:33.870Z,2.75
2023-02-02T10:35:48.358Z,2.90
2023-02-02T10:38:33.387Z,2.47
2023-02-02T10:41:25.363Z,2.38
2023-02-02T10:44:32.479Z,2.60
2023-02-02T10:47:04.023Z,2.30
2023-02-02T10:49:37.384Z,2.55
2023-02-02T10:52:11.112Z,2.25
2023-02-02T10:54:58.221Z,1.90
2023-02-02T10:57:51.608Z,2.40
2023-02-02T11:00:28.773Z,2.35
2023-02-02T11:02:56.296Z,2.30
2023-02-02T11:05:47.274Z,2.15
2023-02-02T11:08:25.216Z,2.22
2023-02-02T11:10:54.711Z,2.20
2023-02-02T11:13:31.043Z,2.20
2023-02-02T11:16:16.188Z,2.05
2023-02-02T11:18:44.491Z,1.95
2023-02-02T11:21:33.961Z,2.20
2023-02-02T11:24:19.357Z,1.98
2023-02-02T11:26:49.056Z,1.95
2023-02-02T11:29:38.439Z,2.90
2023-02-02T11:32:23.873Z,2.53
2023-02-02T11:35:21.310Z,2.08
2023-02-02T11:38:06.875Z,1.77
2023-02-02T11:40:44.425Z,2.03
2023-02-02T11:43:31.660Z,2.53
2023-02-02T11:46:05.350Z,1.77
2023-02-02T11:48:39.639Z,1.90
2023-02-02T11:51:19.761Z,2.10
2023-02-02T11:53:49.000Z,2.50
2023-02-02T11:56:22.193Z,2.00
2023-02-02T11:58:51.469Z,2.28
2023-02-02T12:01:27.341Z,1.85
2023-02-02T12:03:57.037Z,1.80
2023-02-02T12:06:26.350Z,2.13
2023-02-02T12:09:01.414Z,2.40
2023-02-02T12:11:28.163Z,2.15
2023-02-02T12:14:03.870Z,2.00
2023-02-02T12:16:53.461Z,1.75
2023-02-02T12:19:41.461Z,1.80
2023-02-02T12:22:32.819Z,1.95
2023-02-02T12:25:02.745Z,2.20
2023-02-02T12:27:48.824Z,1.75
2023-02-02T12:30:41.965Z,2.30
2023-02-02T12:33:27.795Z,2.55
2023-02-02T12:36:29.252Z,1.85
2023-02-02T12:39:15.524Z,2.28
2023-02-02T12:41:57.328Z,2.40
2023-02-02T12:44:30.053Z,2.03
2023-02-02T12:47:08.842Z,2.35
2023-02-02T12:49:58.648Z,2.60
2023-02-02T12:52:37.648Z,2.00
2023-02-02T12:55:10.678Z,2.17
2023-02-02T12:57:56.076Z,2.58
2023-02-02T13:00:34.850Z,2.90
2023-02-02T13:03:38.645Z,2.37
2023-02-02T13:06:15.923Z,3.25
2023-02-02T13:09:12.063Z,2.10
2023-02-02T13:11:45.918Z,2.45
2023-02-02T13:14:19.994Z,2.72
2023-02-02T13:16:51.581Z,2.30
2023-02-02T13:19:35.584Z,2.97
2023-02-02T13:22:06.165Z,2.38
2023-02-02T13:24:37.662Z,2.72
2023-02-02T13:27:07.624Z,2.95
2023-02-02T13:30:00.574Z,3.33
2023-02-02T13:32:34.378Z,3.20
2023-02-02T13:35:16.226Z,3.55
2023-02-02T13:37:58.635Z,3.75
2023-02-02T13:40:38.709Z,3.40
2023-02-02T13:43:19.748Z,3.93
2023-02-02T13:46:09.366Z,3.38
2023-02-02T13:48:48.397Z,3.30
2023-02-02T13:51:36.192Z,3.47
2023-02-02T13:54:26.427Z,3.22
2023-02-02T13:57:08.922Z,2.90
2023-02-02T13:59:54.595Z,2.80
2023-02-02T14:02:45.339Z,3.15
2023-02-02T14:05:41.856Z,3.05
2023-02-02T14:08:24.288Z,3.00
2023-02-02T14:10:53.972Z,3.25
2023-02-02T14:13:55.805Z,3.47
2023-02-02T14:16:42.059Z,3.63
2023-02-02T14:19:36.120Z,3.40
2023-02-02T14:22:37.989Z,4.00
2023-02-02T14:25:33.784Z,3.30
2023-02-02T14:28:12.371Z,3.15
2023-02-02T14:30:40.312Z,2.63
2023-02-02T14:33:22.028Z,2.60
2023-02-02T14:35:48.705Z,2.57
2023-02-02T14:38:39.364Z,2.70
2023-02-02T14:42:09.229Z,2.60
2023-02-02T14:44:38.019Z,2.60
2023-02-02T14:47:43.356Z,2.58
2023-02-02T14:50:22.413Z,2.83
2023-02-02T14:53:08.465Z,2.90
2023-02-02T14:55:55.205Z,3.25
2023-02-02T14:58:30.320Z,3.00
2023-02-02T15:01:22.844Z,2.80
2023-02-02T15:03:54.563Z,3.28
2023-02-02T15:06:42.386Z,3.60
2023-02-02T15:09:26.487Z,3.80
2023-02-02T15:12:01.156Z,3.67
2023-02-02T15:14:53.088Z,4.10
2023-02-02T15:17:41.597Z,3.90
2023-02-02T15:20:26.651Z,4.70
2023-02-02T15:23:02.636Z,4.97
2023-02-02T15:25:48.311Z,4.60
2023-02-02T15:28:24.415Z,5.05
2023-02-02T15:31:08.590Z,4.90
2023-02-02T15:33:42.198Z,5.35
2023-02-02T15:36:26.353Z,5.20
2023-02-02T15:38:57.959Z,5.82
2023-02-02T15:41:28.586Z,6.00
2023-02-02T15:43:55.444Z,5.50
2023-02-02T15:46:32.503Z,6.10
2023-02-02T15:49:34.397Z,6.25
2023-02-02T15:52:14.572Z,6.15
2023-02-02T15:55:20.099Z,6.00
2023-02-02T15:57:47.520Z,6.10
2023-02-02T16:00:31.915Z,5.90
2023-02-02T16:03:10.104Z,5.40
2023-02-02T16:05:36.949Z,5.75
2023-02-02T16:08:14.418Z,5.88
2023-02-02T16:10:41.263Z,5.32
2023-02-02T16:13:17.545Z,5.43
2023-02-02T16:15:55.498Z,5.00
2023-02-02T16:18:22.303Z,4.95
2023-02-02T16:20:51.301Z,5.00
2023-02-02T16:23:26.217Z,5.47
2023-02-02T16:25:55.980Z,4.90
2023-02-02T16:28:23.342Z,5.03
2023-02-02T16:30:51.901Z,4.63
2023-02-02T16:33:49.374Z,4.63
2023-02-02T16:36:24.275Z,4.63
2023-02-02T16:38:53.401Z,4.57
2023-02-02T16:41:32.979Z,4.78
2023-02-02T16:44:51.229Z,3.97
2023-02-02T16:47:26.847Z,4.47
2023-02-02T16:50:08.563Z,3.80
2023-02-02T16:52:52.978Z,4.03
2023-02-02T16:55:21.214Z,4.15
2023-02-02T16:57:50.410Z,3.80
2023-02-02T17:00:23.817Z,3.83
2023-02-02T17:02:55.105Z,3.55
2023-02-02T17:05:33.877Z,4.15
2023-02-02T17:08:07.935Z,3.60
2023-02-02T17:10:39.999Z,4.15
2023-02-02T17:13:31.377Z,3.78
2023-02-02T17:15:59.862Z,3.72
2023-02-02T17:18:26.748Z,4.10
2023-02-02T17:21:03.610Z,4.10
2023-02-02T17:23:32.228Z,4.17
2023-02-02T17:25:59.819Z,4.03
2023-02-02T17:28:27.695Z,4.07
2023-02-02T17:31:03.855Z,4.30
2023-02-02T17:33:34.274Z,4.20
2023-02-02T17:36:01.989Z,4.57
2023-02-02T17:38:28.878Z,4.20
2023-02-02T17:41:01.235Z,3.65
2023-02-02T17:43:29.838Z,4.20
2023-02-02T17:45:56.825Z,4.00
2023-02-02T17:48:23.727Z,4.63
2023-02-02T17:50:51.199Z,4.25
2023-02-02T17:53:20.887Z,4.20
2023-02-02T17:55:49.826Z,4.60
2023-02-02T17:58:17.113Z,4.18
2023-02-02T18:00:48.918Z,4.37
2023-02-02T18:03:18.901Z,4.50
2023-02-02T18:05:45.903Z,4.10
2023-02-02T18:08:13.219Z,4.23
2023-02-02T18:10:40.998Z,4.07
2023-02-02T18:13:13.308Z,3.97
2023-02-02T18:15:40.403Z,3.97
2023-02-02T18:18:07.334Z,3.72
2023-02-02T18:20:36.243Z,3.90
2023-02-02T18:23:03.083Z,3.53
2023-02-02T18:25:29.874Z,3.83
2023-02-02T18:27:57.616Z,4.20
2023-02-02T18:30:24.776Z,4.22
2023-02-02T18:32:51.737Z,3.90
2023-02-02T18:35:18.986Z,3.80
2023-02-02T18:37:45.901Z,3.23
2023-02-02T18:40:12.768Z,3.20
2023-02-02T18:42:39.574Z,3.45
2023-02-02T18:45:07.284Z,3.22
2023-02-02T18:47:34.179Z,3.33
2023-02-02T18:50:01.126Z,3.33
2023-02-02T18:52:32.106Z,3.28
2023-02-02T18:54:58.844Z,3.00
2023-02-02T18:57:25.886Z,3.20
2023-02-02T18:59:52.983Z,3.33
2023-02-02T19:02:20.282Z,3.17
2023-02-02T19:05:05.511Z,3.00
2023-02-02T19:07:51.441Z,3.50
2023-02-02T19:10:18.858Z,3.83
2023-02-02T19:13:19.513Z,3.30
2023-02-02T19:15:48.764Z,3.42
2023-02-02T19:18:21.428Z,3.80
2023-02-02T19:20:49.621Z,3.53
2023-02-02T19:23:19.530Z,3.33
2023-02-02T19:25:51.549Z,3.33
2023-02-02T19:28:21.197Z,3.50
2023-02-02T19:30:48.577Z,3.47
2023-02-02T19:33:16.112Z,4.55
2023-02-02T19:35:49.313Z,4.90
2023-02-02T19:38:17.879Z,3.70
2023-02-02T19:40:44.962Z,3.58
2023-02-02T19:43:26.214Z,3.60
2023-02-02T19:45:54.637Z,3.85
2023-02-02T19:48:31.315Z,3.40
2023-02-02T19:50:59.002Z,3.50
2023-02-02T19:53:35.251Z,3.83
2023-02-02T19:56:02.744Z,2.92
2023-02-02T19:58:37.085Z,3.53
2023-02-02T20:01:14.992Z,3.35
2023-02-02T20:03:43.253Z,3.22
2023-02-02T20:06:32.168Z,3.95
2023-02-02T20:09:00.976Z,3.10
2023-02-02T20:11:40.030Z,3.13
2023-02-02T20:14:30.227Z,2.97
2023-02-02T20:17:04.777Z,3.15
2023-02-02T20:19:40.067Z,3.33
2023-02-02T20:22:25.160Z,3.00
2023-02-02T20:24:54.704Z,3.35
2023-02-02T20:27:27.398Z,3.15
2023-02-02T20:29:57.722Z,3.10
2023-02-02T20:32:40.853Z,2.90
2023-02-02T20:35:37.025Z,3.40
2023-02-02T20:38:30.051Z,3.17
2023-02-02T20:40:57.996Z,3.53
2023-02-02T20:43:24.805Z,3.45
2023-02-02T20:45:52.006Z,3.35
2023-02-02T20:48:18.857Z,3.45
2023-02-02T20:50:46.869Z,3.73
2023-02-02T20:53:16.529Z,3.67
2023-02-02T20:55:44.661Z,3.75
2023-02-02T20:58:12.248Z,3.63
2023-02-02T21:00:40.065Z,3.75
2023-02-02T21:03:07.027Z,3.20
2023-02-02T21:05:33.918Z,3.20
2023-02-02T21:08:00.950Z,3.50
2023-02-02T21:10:28.681Z,3.35
2023-02-02T21:12:55.664Z,3.17
2023-02-02T21:15:22.729Z,3.45
2023-02-02T21:17:49.494Z,3.42
2023-02-02T21:20:16.236Z,3.70
2023-02-02T21:22:43.063Z,3.55
2023-02-02T21:25:10.506Z,3.63
2023-02-02T21:27:38.657Z,3.53
2023-02-02T21:30:06.023Z,3.27
2023-02-02T21:32:33.621Z,3.20
2023-02-02T21:35:00.469Z,3.30
2023-02-02T21:37:27.297Z,3.08
2023-02-02T21:39:59.616Z,3.38
2023-02-02T21:42:28.343Z,3.25
2023-02-02T21:45:02.977Z,3.30
2023-02-02T21:47:34.195Z,3.50
2023-02-02T21:50:20.325Z,3.10
2023-02-02T21:52:47.242Z,3.20
2023-02-02T21:55:34.349Z,3.53
2023-02-02T21:58:20.139Z,3.47
2023-02-02T22:00:47.388Z,3.20
2023-02-02T22:03:28.283Z,3.67
2023-02-02T22:06:27.356Z,3.42
2023-02-02T22:09:11.054Z,3.50
2023-02-02T22:11:59.498Z,3.33
2023-02-02T22:14:44.251Z,3.40
2023-02-02T22:17:45.837Z,3.53
2023-02-02T22:20:15.473Z,4.10
2023-02-02T22:22:46.432Z,3.40
2023-02-02T22:25:16.041Z,3.53
2023-02-02T22:27:46.400Z,3.30
2023-02-02T22:30:38.998Z,3.50
2023-02-02T22:33:07.732Z,3.42
2023-02-02T22:35:34.897Z,3.83
2023-02-02T22:38:02.760Z,3.63
2023-02-02T22:40:29.926Z,3.30
2023-02-02T22:42:59.950Z,3.50
2023-02-02T22:45:27.116Z,4.20
2023-02-02T22:47:54.793Z,3.72
2023-02-02T22:50:24.045Z,3.40
2023-02-02T22:52:51.566Z,3.15
2023-02-02T22:55:19.418Z,3.15
2023-02-02T22:57:46.754Z,3.35
2023-02-02T23:00:19.790Z,2.78
2023-02-02T23:02:46.856Z,2.92
2023-02-02T23:05:15.405Z,2.90
2023-02-02T23:07:45.595Z,3.08
2023-02-02T23:10:21.157Z,3.13
2023-02-02T23:12:48.867Z,2.90
2023-02-02T23:15:15.807Z,3.57
2023-02-02T23:17:42.835Z,2.88
2023-02-02T23:20:13.331Z,2.85
2023-02-02T23:22:40.280Z,2.78
2023-02-02T23:25:07.926Z,3.25
2023-02-02T23:27:34.971Z,2.80
2023-02-02T23:30:01.937Z,2.83
2023-02-02T23:32:28.749Z,2.92
2023-02-02T23:34:55.476Z,2.45
2023-02-02T23:37:22.234Z,2.53
2023-02-02T23:39:49.050Z,2.42
2023-02-02T23:42:15.976Z,2.63
2023-02-02T23:44:42.879Z,2.60
2023-02-02T23:47:09.969Z,2.50
2023-02-02T23:49:38.228Z,2.30
2023-02-02T23:52:05.192Z,2.58
2023-02-02T23:54:32.843Z,2.60
2023-02-02T23:57:00.126Z,2.75
2023-02-02T23:59:27.206Z,2.40
